Latest Weather Observations for Maria Island

IDT60901

Issued at 6:01 pm EST Thursday 30 July 2015 (issued every 10 minutes, with the page automatically refreshed every 10 minutes)

About weather observations | Map of Hobart area stations | Latest observations for Hobart area | Other Formats
Station Details ID: 092124 Name: MARIA ISLAND (POINT LESUEUR) Lat: -42.66 Lon: 148.02 Height: 28.0 m
Data from the previous 72 hours. | See also: Recent months at Maria Island
Date/Time
EST
Tmp

°C
App
Tmp
°C
Dew
Point
°C
Rel
Hum
%
Delta-T

°C
Wind Press
QNH
hPa
Press
MSL
hPa
Rain
since
9 am
mm
Dir
 
Spd
km/h
Gust
km/h
Spd
kts
Gust
kts
30/06:00pm 10.5 -2.5 5.5 71 2.3 NNW 63 76 34 41 998.4 998.5 0.0
30/05:30pm 10.7 -3.5 5.0 68 2.6 NNW 69 85 37 46 998.4 998.5 0.0
30/05:00pm 10.9 -2.2 4.8 66 2.8 NNW 63 83 34 45 999.2 999.2 0.0
30/04:36pm 11.3 -0.7 4.7 64 3.0 NNW 57 76 31 41 999.6 999.6 0.0
30/04:30pm 11.3 -0.6 5.4 67 2.7 NNW 57 72 31 39 1000.2 1000.2 0.0
30/04:00pm 12.0 1.1 5.4 64 3.1 NNW 52 65 28 35 1000.8 1000.8 0.0
30/03:30pm 12.2 1.2 5.1 62 3.3 NNW 52 65 28 35 1001.4 1001.4 0.0
30/03:28pm 12.2 0.8 4.9 61 3.3 NNW 54 72 29 39 1001.3 1001.3 0.0
30/03:00pm 12.2 0.2 4.7 60 3.4 NNW 57 70 31 38 1001.4 1001.4 0.0
30/02:38pm 12.2 -0.2 4.7 60 3.4 NNW 59 78 32 42 1001.8 1001.8 0.0
30/02:30pm 12.2 0.2 4.7 60 3.4 NNW 57 74 31 40 1002.4 1002.4 0.0
30/02:00pm 12.2 0.1 4.4 59 3.6 NNW 57 80 31 43 1002.8 1002.8 0.0
30/01:43pm 12.1 1.1 5.0 62 3.3 NNW 52 72 28 39 1003.7 1003.7 0.0
30/01:30pm 12.2 1.6 4.9 61 3.3 NNW 50 67 27 36 1004.0 1004.0 0.0
30/01:20pm 12.2 0.7 4.2 58 3.6 NNW 54 76 29 41 1003.5 1003.5 0.0
30/01:00pm 12.1 2.2 4.8 61 3.4 NNW 46 59 25 32 1004.4 1004.4 0.0
30/12:38pm 12.2 1.5 4.4 59 3.5 NNW 50 70 27 38 1006.0 1006.0 0.0
30/12:30pm 12.2 1.5 4.7 60 3.4 NNW 50 65 27 35 1006.2 1006.2 0.0
30/12:15pm 12.1 3.2 5.0 62 3.3 NNW 41 59 22 32 1006.9 1006.9 0.0
30/12:00pm 11.9 2.5 4.4 60 3.4 NNW 43 52 23 28 1006.6 1006.6 0.0
30/11:30am 11.8 2.2 4.3 60 3.4 NNW 44 67 24 36 1007.4 1007.4 0.0
30/11:29am 11.8 2.5 4.8 62 3.2 NNW 43 67 23 36 1007.5 1007.5 0.0
30/11:00am 11.8 2.4 5.2 64 3.0 NNW 44 54 24 29 1008.6 1008.6 0.0
30/10:30am 11.4 1.2 5.3 66 2.8 NNW 48 56 26 30 1009.1 1009.1 0.0
30/10:00am 11.3 1.1 5.0 65 2.9 N 48 67 26 36 1010.0 1010.0 0.0
30/09:59am 11.3 1.0 4.7 64 3.0 N 48 67 26 36 1009.9 1009.9 0.0
30/09:30am 11.1 1.8 5.2 67 2.7 N 43 54 23 29 1010.7 1010.7 0.0
30/09:00am 11.2 1.6 4.4 63 3.1 N 44 57 24 31 1011.1 1011.1 0.0
30/08:30am 10.8 1.2 4.5 65 2.8 N 44 54 24 29 1011.9 1011.9 0.0
30/08:00am 10.5 1.6 5.1 69 2.5 N 41 50 22 27 1012.5 1012.5 0.0
30/07:30am 10.4 2.3 5.2 70 2.4 N 37 44 20 24 1013.1 1013.1 0.0
30/07:00am 10.4 3.2 5.8 73 2.1 N 33 43 18 23 1013.6 1013.6 0.0
30/06:30am 10.4 3.4 6.0 74 2.0 N 32 39 17 21 1014.0 1014.0 0.0
30/06:25am 10.4 4.1 5.8 73 2.1 N 28 39 15 21 1014.1 1014.1 0.0
30/06:00am 9.9 6.0 5.5 74 2.0 NNW 15 20 8 11 1014.7 1014.7 0.0
30/05:30am 9.8 4.5 5.2 73 2.1 NNW 22 28 12 15 1015.2 1015.2 0.0
30/05:00am 9.8 3.0 5.0 72 2.2 NNW 30 35 16 19 1015.2 1015.2 0.0
30/04:30am 10.0 3.1 4.8 70 2.3 NNW 30 35 16 19 1015.8 1015.8 0.0
30/04:00am 9.8 4.5 4.8 71 2.2 N 22 28 12 15 1016.2 1016.2 0.0
30/03:30am 10.2 3.5 5.6 73 2.1 NNW 30 35 16 19 1016.2 1016.2 0.0
30/03:00am 10.4 4.0 5.4 71 2.3 N 28 33 15 18 1016.5 1016.5 0.0
30/02:30am 10.4 4.4 5.4 71 2.3 NNW 26 32 14 17 1017.2 1017.2 0.0
30/02:02am 10.8 4.4 5.1 68 2.6 NNW 28 46 15 25 1018.0 1018.0 0.0
30/02:00am 11.0 3.9 5.3 68 2.6 NNW 32 46 17 25 1018.1 1018.1 0.0
30/01:30am 11.1 3.8 5.4 68 2.6 NNW 33 43 18 23 1017.9 1017.9 0.0
30/01:00am 11.0 2.8 6.4 73 2.2 N 39 46 21 25 1018.1 1018.1 0.0
30/12:30am 10.8 3.8 6.9 77 1.8 N 33 39 18 21 1018.5 1018.5 0.0
30/12:00am 10.5 4.5 7.0 79 1.7 N 28 32 15 17 1019.1 1019.1 0.0
 
Date/Time
EST
Tmp

°C
App
Tmp
°C
Dew
Point
°C
Rel
Hum
%
Delta-T

°C
Wind Press
QNH
hPa
Press
MSL
hPa
Rain
since
9 am
mm
Dir
 
Spd
km/h
Gust
km/h
Spd
kts
Gust
kts
29/11:30pm 10.6 4.6 7.1 79 1.7 N 28 32 15 17 1019.7 1019.7 0.0
29/11:00pm 10.6 5.4 7.1 79 1.7 N 24 28 13 15 1019.9 1019.9 0.0
29/10:30pm 10.5 5.0 7.4 81 1.5 N 26 30 14 16 1020.3 1020.3 0.0
29/10:00pm 10.5 4.5 7.0 79 1.7 N 28 32 15 17 1020.7 1020.8 0.0
29/09:30pm 10.3 5.0 7.0 80 1.6 N 24 28 13 15 1021.2 1021.3 0.0
29/09:00pm 10.5 5.2 7.0 79 1.7 N 24 32 13 17 1021.7 1021.8 0.0
29/08:30pm 10.5 4.8 6.8 78 1.7 N 26 33 14 18 1021.6 1021.7 0.0
29/08:00pm 10.6 4.9 6.7 77 1.8 N 26 32 14 17 1021.7 1021.8 0.0
29/07:30pm 10.8 5.5 6.9 77 1.8 N 24 28 13 15 1021.8 1021.9 0.0
29/07:00pm 10.9 6.6 7.0 77 1.8 N 19 22 10 12 1022.0 1022.1 0.0
29/06:30pm 11.0 7.0 6.7 75 2.0 N 17 24 9 13 1021.7 1021.8 0.0
29/06:00pm 10.9 6.6 7.0 77 1.8 N 19 22 10 12 1022.1 1022.2 0.0
29/05:30pm 11.0 6.1 6.9 76 1.9 N 22 26 12 14 1022.1 1022.2 0.0
29/05:00pm 11.0 6.7 7.1 77 1.9 N 19 22 10 12 1022.1 1022.2 0.0
29/04:30pm 10.8 7.6 6.9 77 1.8 N 13 15 7 8 1022.5 1022.6 0.0
29/04:00pm 10.9 7.6 6.6 75 2.0 N 13 15 7 8 1022.7 1022.8 0.0
29/03:30pm 10.9 6.7 5.9 71 2.3 NNW 17 19 9 10 1023.0 1023.1 0.0
29/03:00pm 10.9 7.1 5.9 71 2.3 N 15 17 8 9 1023.1 1023.2 0.0
29/02:30pm 10.8 7.0 5.8 71 2.3 N 15 19 8 10 1023.5 1023.6 0.0
29/02:00pm 10.8 6.2 5.6 70 2.4 NNW 19 24 10 13 1023.9 1024.0 0.0
29/01:30pm 11.2 5.3 5.7 69 2.5 NNW 26 30 14 16 1023.9 1024.0 0.0
29/01:00pm 11.4 5.4 5.3 66 2.8 NNW 26 30 14 16 1024.3 1024.4 0.0
29/12:30pm 12.1 6.1 5.5 64 3.1 NNW 26 32 14 17 1024.8 1024.9 0.0
29/12:00pm 10.9 6.2 5.9 71 2.3 N 20 24 11 13 1025.2 1025.3 0.0
29/11:30am 11.0 6.4 6.4 73 2.2 N 20 22 11 12 1025.9 1026.0 0.0
29/11:00am 10.3 6.1 5.9 74 2.0 N 17 20 9 11 1026.5 1026.6 0.0
29/10:30am 10.2 6.0 5.6 73 2.1 N 17 24 9 13 1027.0 1027.1 0.0
29/10:00am 10.1 5.6 6.1 76 1.8 N 19 22 10 12 1027.3 1027.4 0.0
29/09:30am 9.5 6.2 6.2 80 1.5 NNW 13 17 7 9 1027.4 1027.5 0.0
29/09:00am 8.9 4.2 6.2 83 1.2 NNW 20 24 11 13 1027.5 1027.6 0.0
29/08:30am 7.9 5.7 5.4 84 1.1 NNW 6 7 3 4 1027.6 1027.7 0.0
29/08:00am 7.5 5.1 5.1 85 1.1 WNW 7 11 4 6 1027.4 1027.5 0.0
29/07:30am 7.2 4.9 5.0 86 1.0 WSW 6 9 3 5 1027.3 1027.4 0.0
29/07:00am 7.3 4.9 5.1 86 1.0 WSW 7 11 4 6 1027.4 1027.5 0.0
29/06:30am 7.9 3.6 5.4 84 1.1 WNW 17 20 9 11 1027.4 1027.5 0.0
29/06:00am 8.5 3.0 6.0 84 1.1 NW 24 26 13 14 1026.9 1027.0 0.0
29/05:30am 8.7 4.0 6.0 83 1.2 NNW 20 30 11 16 1026.6 1026.7 0.0
29/05:00am 8.6 4.0 6.4 86 1.0 NW 20 22 11 12 1026.6 1026.7 0.0
29/04:30am 8.8 5.3 7.1 89 0.8 NNW 15 17 8 9 1026.6 1026.7 0.0
29/04:00am 8.5 5.0 7.0 90 0.7 NNW 15 17 8 9 1026.6 1026.7 0.0
29/03:30am 8.4 5.1 6.4 87 0.9 NW 13 15 7 8 1026.7 1026.8 0.0
29/03:00am 8.6 4.9 6.4 86 1.0 NW 15 17 8 9 1026.7 1026.8 0.0
29/02:30am 8.7 4.7 6.7 87 0.9 NW 17 19 9 10 1026.8 1026.9 0.0
29/02:00am 9.0 5.8 7.0 87 0.9 NW 13 17 7 9 1026.9 1027.0 0.0
29/01:30am 8.6 7.1 6.6 87 0.9 N 4 6 2 3 1027.0 1027.1 0.0
29/01:00am 9.2 5.9 6.5 83 1.2 NW 13 15 7 8 1027.1 1027.2 0.0
29/12:30am 9.3 6.8 6.6 83 1.3 NNW 9 15 5 8 1027.3 1027.4 0.0
29/12:00am 9.4 7.1 5.9 79 1.6 NNW 7 11 4 6 1027.4 1027.5 0.0
 
Date/Time
EST
Tmp

°C
App
Tmp
°C
Dew
Point
°C
Rel
Hum
%
Delta-T

°C
Wind Press
QNH
hPa
Press
MSL
hPa
Rain
since
9 am
mm
Dir
 
Spd
km/h
Gust
km/h
Spd
kts
Gust
kts
28/11:30pm 10.3 8.3 7.2 81 1.5 N 7 9 4 5 1027.2 1027.3 0.0
28/11:00pm 9.3 7.7 6.4 82 1.3 NNE 4 6 2 3 1027.2 1027.3 0.0
28/10:30pm 10.2 8.2 6.4 77 1.8 NW 6 9 3 5 1027.2 1027.3 0.0
28/10:00pm 10.3 7.9 6.8 79 1.6 NNW 9 9 5 5 1027.2 1027.3 0.0
28/09:30pm 10.5 8.6 6.8 78 1.7 N 6 11 3 6 1027.1 1027.2 0.0
28/09:00pm 11.3 9.8 6.8 74 2.1 NNW 4 6 2 3 1026.9 1027.0 0.0
28/08:30pm 10.9 9.5 7.4 79 1.7 NNE 4 6 2 3 1026.7 1026.8 0.0
28/08:00pm 10.6 7.3 6.6 76 1.9 W 13 17 7 9 1026.3 1026.4 0.0
28/07:30pm 12.3 10.4 6.6 68 2.7 NNW 6 6 3 3 1026.3 1026.4 0.0
28/07:00pm 12.6 11.0 6.4 66 2.9 W 4 6 2 3 1026.2 1026.3 0.0
28/06:30pm 12.5 10.4 6.8 68 2.7 WSW 7 9 4 5 1025.9 1026.0 0.0
28/06:00pm 12.8 10.8 7.3 69 2.7 SW 7 11 4 6 1025.6 1025.7 0.0
28/05:30pm 12.5 10.8 7.6 72 2.4 SW 6 9 3 5 1025.3 1025.4 0.0
28/05:00pm 13.2 11.3 6.8 65 3.1 W 6 9 3 5 1024.9 1025.0 0.0
28/04:30pm 13.8 11.6 6.4 61 3.6 WSW 7 9 4 5 1024.6 1024.7 0.0
28/04:00pm 14.2 11.4 7.0 62 3.5 WSW 11 13 6 7 1024.4 1024.5 0.0
28/03:30pm 13.7 10.4 6.6 62 3.4 WSW 13 20 7 11 1024.3 1024.4 0.0
28/03:00pm 13.8 9.5 6.9 63 3.3 WSW 19 24 10 13 1024.0 1024.1 0.0
28/02:30pm 14.7 11.1 6.8 59 3.8 W 15 19 8 10 1024.0 1024.1 0.0
28/02:00pm 14.4 9.8 6.3 58 3.9 W 20 30 11 16 1023.8 1023.9 0.0
28/01:30pm 14.0 10.9 7.3 64 3.3 W 13 19 7 10 1024.2 1024.3 0.0
28/01:00pm 14.4 11.1 6.3 58 3.9 W 13 17 7 9 1024.3 1024.4 0.0
28/12:30pm 14.3 10.7 6.9 61 3.6 WNW 15 20 8 11 1024.4 1024.5 0.0
28/12:00pm 13.6 9.2 6.5 62 3.4 WNW 19 24 10 13 1024.6 1024.7 0.0
28/11:30am 12.6 9.6 5.8 63 3.2 NNW 11 17 6 9 1025.0 1025.1 0.0
28/11:00am 11.8 9.1 5.7 66 2.8 NW 9 13 5 7 1025.5 1025.6 0.0
28/10:30am 11.1 7.7 5.8 70 2.5 NW 13 17 7 9 1025.4 1025.5 0.0
28/10:00am 10.6 6.8 5.6 71 2.3 WNW 15 17 8 9 1025.0 1025.1 0.0
28/09:30am 10.2 6.4 5.8 74 2.0 W 15 19 8 10 1024.7 1024.8 0.0
28/09:00am 9.4 7.0 5.2 75 1.9 WNW 7 9 4 5 1024.8 1024.9 0.0
28/08:30am 10.0 7.5 5.0 71 2.3 NW 7 11 4 6 1024.6 1024.7 0.0
28/08:00am 9.7 7.5 5.1 73 2.1 WNW 6 19 3 10 1024.3 1024.4 0.0
28/07:30am 9.1 6.7 5.1 76 1.8 W 7 13 4 7 1023.9 1024.0 0.0
28/07:00am 9.7 5.6 4.5 70 2.3 W 15 19 8 10 1023.4 1023.5 0.0
28/06:30am 9.4 5.3 4.2 70 2.3 W 15 19 8 10 1023.1 1023.2 0.0
28/06:00am 9.4 6.0 3.8 68 2.4 W 11 15 6 8 1022.8 1022.9 0.0
28/05:30am 9.5 5.7 3.7 67 2.5 W 13 17 7 9 1022.5 1022.6 0.0
28/05:00am 9.8 5.2 3.8 66 2.6 WNW 17 24 9 13 1022.1 1022.2 0.0
28/04:30am 9.8 4.9 4.0 67 2.6 NW 19 26 10 14 1021.7 1021.8 0.0
28/04:00am 10.2 4.3 3.7 64 2.8 WNW 24 32 13 17 1021.3 1021.4 0.0
28/03:30am 9.8 4.6 3.3 64 2.8 W 20 32 11 17 1021.1 1021.2 0.0
28/03:00am 9.5 6.5 3.9 68 2.4 W 9 20 5 11 1021.2 1021.3 0.0
28/02:30am 9.5 5.8 4.7 72 2.1 W 13 19 7 10 1021.3 1021.4 0.0
28/02:00am 9.0 4.2 5.4 78 1.6 WNW 20 24 11 13 1021.1 1021.2 0.0
28/01:30am 8.5 4.5 4.9 78 1.6 W 15 19 8 10 1020.9 1021.0 0.0
28/01:00am 8.7 6.4 4.7 76 1.8 WNW 6 7 3 4 1021.0 1021.1 0.0
28/12:30am 9.7 4.5 5.3 74 2.0 WSW 22 32 12 17 1020.7 1020.8 0.0
28/12:00am 10.0 6.3 4.6 69 2.4 W 13 30 7 16 1020.7 1020.8 0.0
 
Date/Time
EST
Tmp

°C
App
Tmp
°C
Dew
Point
°C
Rel
Hum
%
Delta-T

°C
Wind Press
QNH
hPa
Press
MSL
hPa
Rain
since
9 am
mm
Dir
 
Spd
km/h
Gust
km/h
Spd
kts
Gust
kts
27/11:30pm 9.6 6.6 4.0 68 2.5 NW 9 15 5 8 1020.6 1020.6 0.0
27/11:00pm 9.0 4.0 3.8 70 2.3 WNW 19 22 10 12 1020.4 1020.4 0.0
27/10:30pm 8.8 4.2 3.6 70 2.2 WNW 17 19 9 10 1020.3 1020.3 0.0
27/10:00pm 8.7 4.5 3.7 71 2.2 WNW 15 19 8 10 1020.1 1020.1 0.0
27/09:30pm 8.8 4.9 3.6 70 2.2 NW 13 15 7 8 1020.0 1020.0 0.0
27/09:00pm 9.2 5.7 3.4 67 2.5 NNW 11 13 6 7 1020.0 1020.0 0.0
27/08:30pm 9.6 5.3 3.4 65 2.7 W 15 19 8 10 1019.6 1019.6 0.0
27/08:00pm 9.5 5.6 3.5 66 2.6 W 13 20 7 11 1019.2 1019.2 0.0
27/07:30pm 9.6 6.1 3.6 66 2.6 W 11 17 6 9 1019.0 1019.0 0.0
27/07:00pm 10.1 5.5 3.8 65 2.8 WSW 17 28 9 15 1018.8 1018.8 0.0
27/06:30pm 10.1 5.1 3.8 65 2.8 WSW 19 26 10 14 1018.4 1018.4 0.0

Latest Capital City Observations: Canberra | Sydney | Melbourne | Brisbane | Adelaide | Perth | Hobart | Darwin

Other Formats:

Comma delimited format used in spreadsheet applications
http://www.bom.gov.au/fwo/IDT60901/IDT60901.95988.axf

JavaScript Object Notation format (JSON) in row-major order
http://www.bom.gov.au/fwo/IDT60901/IDT60901.95988.json